sensor_id;sensor_type;location;lat;lon;timestamp;P1;durP1;ratioP1;P2;durP2;ratioP2
71973;SDS011;59840;52.122;5.404;2023-07-31T00:01:16;2.58;;;0.30;;
71973;SDS011;59840;52.122;5.404;2023-07-31T00:03:46;0.90;;;0.30;;
71973;SDS011;59840;52.122;5.404;2023-07-31T00:06:13;5.57;;;0.73;;
71973;SDS011;59840;52.122;5.404;2023-07-31T00:08:42;1.15;;;0.30;;
71973;SDS011;59840;52.122;5.404;2023-07-31T00:11:15;2.28;;;0.40;;
71973;SDS011;59840;52.122;5.404;2023-07-31T00:13:44;2.08;;;0.38;;
71973;SDS011;59840;52.122;5.404;2023-07-31T00:16:13;0.80;;;0.30;;
71973;SDS011;59840;52.122;5.404;2023-07-31T00:18:46;1.10;;;0.30;;
71973;SDS011;59840;52.122;5.404;2023-07-31T00:21:21;1.60;;;0.30;;
71973;SDS011;59840;52.122;5.404;2023-07-31T00:23:52;0.95;;;0.38;;
71973;SDS011;59840;52.122;5.404;2023-07-31T00:26:18;1.15;;;0.50;;
71973;SDS011;59840;52.122;5.404;2023-07-31T00:28:51;1.03;;;0.57;;
71973;SDS011;59840;52.122;5.404;2023-07-31T00:31:20;1.00;;;0.70;;
71973;SDS011;59840;52.122;5.404;2023-07-31T00:33:54;2.50;;;1.10;;
71973;SDS011;59840;52.122;5.404;2023-07-31T00:36:21;2.40;;;1.00;;
71973;SDS011;59840;52.122;5.404;2023-07-31T00:38:52;5.93;;;1.42;;
71973;SDS011;59840;52.122;5.404;2023-07-31T00:41:22;6.53;;;1.93;;
71973;SDS011;59840;52.122;5.404;2023-07-31T00:43:52;5.55;;;1.70;;
71973;SDS011;59840;52.122;5.404;2023-07-31T00:46:25;9.80;;;2.20;;
71973;SDS011;59840;52.122;5.404;2023-07-31T00:48:52;8.45;;;2.60;;
71973;SDS011;59840;52.122;5.404;2023-07-31T00:51:19;10.35;;;2.30;;
71973;SDS011;59840;52.122;5.404;2023-07-31T00:53:46;15.43;;;2.63;;
71973;SDS011;59840;52.122;5.404;2023-07-31T00:56:16;13.00;;;2.90;;
71973;SDS011;59840;52.122;5.404;2023-07-31T00:58:43;13.25;;;3.13;;
71973;SDS011;59840;52.122;5.404;2023-07-31T01:01:09;11.73;;;2.75;;
71973;SDS011;59840;52.122;5.404;2023-07-31T01:03:36;14.90;;;3.17;;
71973;SDS011;59840;52.122;5.404;2023-07-31T01:09:09;15.65;;;3.40;;
71973;SDS011;59840;52.122;5.404;2023-07-31T01:11:53;16.63;;;3.17;;
71973;SDS011;59840;52.122;5.404;2023-07-31T01:14:29;12.50;;;3.15;;
71973;SDS011;59840;52.122;5.404;2023-07-31T01:16:56;12.45;;;3.15;;
71973;SDS011;59840;52.122;5.404;2023-07-31T01:19:24;11.27;;;3.13;;
71973;SDS011;59840;52.122;5.404;2023-07-31T01:27:17;6.80;;;2.53;;
71973;SDS011;59840;52.122;5.404;2023-07-31T01:30:08;8.40;;;2.00;;
71973;SDS011;59840;52.122;5.404;2023-07-31T01:32:40;9.27;;;2.27;;
71973;SDS011;59840;52.122;5.404;2023-07-31T01:35:10;6.82;;;2.38;;
71973;SDS011;59840;52.122;5.404;2023-07-31T01:37:37;7.30;;;2.30;;
71973;SDS011;59840;52.122;5.404;2023-07-31T01:40:06;9.90;;;2.50;;
71973;SDS011;59840;52.122;5.404;2023-07-31T01:42:34;12.50;;;2.92;;
71973;SDS011;59840;52.122;5.404;2023-07-31T01:45:01;18.43;;;3.23;;
71973;SDS011;59840;52.122;5.404;2023-07-31T01:47:32;9.82;;;2.83;;
71973;SDS011;59840;52.122;5.404;2023-07-31T01:49:59;12.65;;;2.75;;
71973;SDS011;59840;52.122;5.404;2023-07-31T01:52:26;9.18;;;2.80;;
71973;SDS011;59840;52.122;5.404;2023-07-31T01:54:55;14.18;;;3.20;;
71973;SDS011;59840;52.122;5.404;2023-07-31T01:57:23;11.13;;;2.93;;
71973;SDS011;59840;52.122;5.404;2023-07-31T01:59:50;16.25;;;3.75;;
71973;SDS011;59840;52.122;5.404;2023-07-31T02:02:17;11.48;;;3.05;;
71973;SDS011;59840;52.122;5.404;2023-07-31T02:04:43;11.90;;;3.33;;
71973;SDS011;59840;52.122;5.404;2023-07-31T02:07:10;13.20;;;2.85;;
71973;SDS011;59840;52.122;5.404;2023-07-31T02:09:37;10.00;;;2.57;;
71973;SDS011;59840;52.122;5.404;2023-07-31T02:12:09;7.75;;;2.78;;
71973;SDS011;59840;52.122;5.404;2023-07-31T02:14:40;9.75;;;2.70;;
71973;SDS011;59840;52.122;5.404;2023-07-31T02:17:12;9.57;;;2.47;;
71973;SDS011;59840;52.122;5.404;2023-07-31T02:19:43;8.80;;;2.63;;
71973;SDS011;59840;52.122;5.404;2023-07-31T02:22:10;9.50;;;2.77;;
71973;SDS011;59840;52.122;5.404;2023-07-31T02:24:37;11.50;;;2.70;;
71973;SDS011;59840;52.122;5.404;2023-07-31T02:27:04;8.57;;;2.85;;
71973;SDS011;59840;52.122;5.404;2023-07-31T02:29:31;9.98;;;2.75;;
71973;SDS011;59840;52.122;5.404;2023-07-31T02:32:00;11.00;;;2.80;;
71973;SDS011;59840;52.122;5.404;2023-07-31T02:34:26;8.90;;;2.93;;
71973;SDS011;59840;52.122;5.404;2023-07-31T02:36:55;9.18;;;2.42;;
71973;SDS011;59840;52.122;5.404;2023-07-31T02:39:22;6.60;;;2.50;;
71973;SDS011;59840;52.122;5.404;2023-07-31T02:41:49;7.75;;;2.25;;
71973;SDS011;59840;52.122;5.404;2023-07-31T02:44:15;6.20;;;2.22;;
71973;SDS011;59840;52.122;5.404;2023-07-31T02:46:42;7.90;;;2.50;;
71973;SDS011;59840;52.122;5.404;2023-07-31T02:49:09;8.35;;;2.47;;
71973;SDS011;59840;52.122;5.404;2023-07-31T02:51:38;7.70;;;2.20;;
71973;SDS011;59840;52.122;5.404;2023-07-31T02:54:05;7.38;;;2.30;;
71973;SDS011;59840;52.122;5.404;2023-07-31T02:56:32;11.35;;;2.65;;
71973;SDS011;59840;52.122;5.404;2023-07-31T02:58:59;10.23;;;2.80;;
71973;SDS011;59840;52.122;5.404;2023-07-31T03:01:25;14.57;;;3.10;;
71973;SDS011;59840;52.122;5.404;2023-07-31T03:03:52;12.98;;;3.45;;
71973;SDS011;59840;52.122;5.404;2023-07-31T03:06:19;10.20;;;3.13;;
71973;SDS011;59840;52.122;5.404;2023-07-31T03:08:46;11.90;;;3.28;;
71973;SDS011;59840;52.122;5.404;2023-07-31T03:11:13;15.87;;;3.87;;
71973;SDS011;59840;52.122;5.404;2023-07-31T03:13:39;12.40;;;3.38;;
71973;SDS011;59840;52.122;5.404;2023-07-31T03:16:06;17.75;;;3.50;;
71973;SDS011;59840;52.122;5.404;2023-07-31T03:18:35;11.88;;;3.42;;
71973;SDS011;59840;52.122;5.404;2023-07-31T03:21:02;9.15;;;3.00;;
71973;SDS011;59840;52.122;5.404;2023-07-31T03:23:29;11.83;;;3.90;;
71973;SDS011;59840;52.122;5.404;2023-07-31T03:25:59;15.35;;;4.85;;
71973;SDS011;59840;52.122;5.404;2023-07-31T03:28:27;14.75;;;4.38;;
71973;SDS011;59840;52.122;5.404;2023-07-31T03:30:54;12.50;;;3.85;;
71973;SDS011;59840;52.122;5.404;2023-07-31T03:33:21;11.48;;;2.97;;
71973;SDS011;59840;52.122;5.404;2023-07-31T03:35:47;14.53;;;3.90;;
71973;SDS011;59840;52.122;5.404;2023-07-31T03:38:14;12.05;;;3.78;;
71973;SDS011;59840;52.122;5.404;2023-07-31T03:40:41;12.10;;;3.75;;
71973;SDS011;59840;52.122;5.404;2023-07-31T03:43:07;14.90;;;4.28;;
71973;SDS011;59840;52.122;5.404;2023-07-31T03:45:34;12.48;;;3.45;;
71973;SDS011;59840;52.122;5.404;2023-07-31T03:48:01;12.63;;;3.60;;
71973;SDS011;59840;52.122;5.404;2023-07-31T03:50:29;11.73;;;3.63;;
71973;SDS011;59840;52.122;5.404;2023-07-31T03:52:57;11.63;;;3.80;;
71973;SDS011;59840;52.122;5.404;2023-07-31T03:55:24;16.33;;;4.07;;
71973;SDS011;59840;52.122;5.404;2023-07-31T03:57:51;14.95;;;3.95;;
71973;SDS011;59840;52.122;5.404;2023-07-31T04:00:18;11.47;;;3.70;;
71973;SDS011;59840;52.122;5.404;2023-07-31T04:02:44;13.82;;;3.40;;
71973;SDS011;59840;52.122;5.404;2023-07-31T04:05:11;14.73;;;4.03;;
71973;SDS011;59840;52.122;5.404;2023-07-31T04:07:40;11.35;;;3.83;;
71973;SDS011;59840;52.122;5.404;2023-07-31T04:10:09;8.40;;;3.85;;
71973;SDS011;59840;52.122;5.404;2023-07-31T04:12:39;8.40;;;3.67;;
71973;SDS011;59840;52.122;5.404;2023-07-31T04:15:08;11.57;;;3.78;;
71973;SDS011;59840;52.122;5.404;2023-07-31T04:17:35;14.13;;;4.00;;
71973;SDS011;59840;52.122;5.404;2023-07-31T04:20:02;14.20;;;3.67;;
71973;SDS011;59840;52.122;5.404;2023-07-31T04:22:29;15.55;;;3.80;;
71973;SDS011;59840;52.122;5.404;2023-07-31T04:24:55;12.60;;;4.03;;
71973;SDS011;59840;52.122;5.404;2023-07-31T04:27:22;13.60;;;3.92;;
71973;SDS011;59840;52.122;5.404;2023-07-31T04:29:48;11.50;;;3.85;;
71973;SDS011;59840;52.122;5.404;2023-07-31T04:32:15;11.35;;;3.83;;
71973;SDS011;59840;52.122;5.404;2023-07-31T04:34:43;10.52;;;3.78;;
71973;SDS011;59840;52.122;5.404;2023-07-31T04:37:09;8.80;;;3.43;;
71973;SDS011;59840;52.122;5.404;2023-07-31T04:39:36;11.15;;;3.65;;
71973;SDS011;59840;52.122;5.404;2023-07-31T04:42:03;13.55;;;3.47;;
71973;SDS011;59840;52.122;5.404;2023-07-31T04:44:30;9.88;;;3.53;;
71973;SDS011;59840;52.122;5.404;2023-07-31T04:46:57;12.05;;;3.30;;
71973;SDS011;59840;52.122;5.404;2023-07-31T04:49:23;12.40;;;3.67;;
71973;SDS011;59840;52.122;5.404;2023-07-31T04:51:50;11.43;;;3.50;;
71973;SDS011;59840;52.122;5.404;2023-07-31T04:54:17;9.30;;;3.22;;
71973;SDS011;59840;52.122;5.404;2023-07-31T04:56:43;11.00;;;3.15;;
71973;SDS011;59840;52.122;5.404;2023-07-31T04:59:10;11.90;;;3.65;;
71973;SDS011;59840;52.122;5.404;2023-07-31T05:01:37;7.83;;;3.23;;
71973;SDS011;59840;52.122;5.404;2023-07-31T05:04:03;10.13;;;2.97;;
71973;SDS011;59840;52.122;5.404;2023-07-31T05:06:30;8.23;;;3.10;;
71973;SDS011;59840;52.122;5.404;2023-07-31T05:08:59;8.32;;;3.10;;
71973;SDS011;59840;52.122;5.404;2023-07-31T05:11:25;12.23;;;3.10;;
71973;SDS011;59840;52.122;5.404;2023-07-31T05:13:52;15.67;;;3.50;;
71973;SDS011;59840;52.122;5.404;2023-07-31T05:16:19;9.68;;;3.80;;
71973;SDS011;59840;52.122;5.404;2023-07-31T05:18:47;11.98;;;3.17;;
71973;SDS011;59840;52.122;5.404;2023-07-31T05:21:14;10.68;;;3.60;;
71973;SDS011;59840;52.122;5.404;2023-07-31T05:23:43;7.03;;;3.47;;
71973;SDS011;59840;52.122;5.404;2023-07-31T05:26:14;11.73;;;4.03;;
71973;SDS011;59840;52.122;5.404;2023-07-31T05:28:44;9.82;;;3.58;;
71973;SDS011;59840;52.122;5.404;2023-07-31T05:31:20;7.93;;;2.95;;
71973;SDS011;59840;52.122;5.404;2023-07-31T05:33:48;6.60;;;3.13;;
71973;SDS011;59840;52.122;5.404;2023-07-31T05:36:16;6.40;;;2.47;;
71973;SDS011;59840;52.122;5.404;2023-07-31T05:38:49;5.47;;;2.30;;
71973;SDS011;59840;52.122;5.404;2023-07-31T05:41:16;4.50;;;2.08;;
71973;SDS011;59840;52.122;5.404;2023-07-31T05:43:42;6.03;;;1.90;;
71973;SDS011;59840;52.122;5.404;2023-07-31T05:46:09;5.15;;;1.75;;
71973;SDS011;59840;52.122;5.404;2023-07-31T05:48:39;2.92;;;1.60;;
71973;SDS011;59840;52.122;5.404;2023-07-31T05:51:06;5.20;;;1.50;;
71973;SDS011;59840;52.122;5.404;2023-07-31T05:53:33;7.55;;;1.98;;
71973;SDS011;59840;52.122;5.404;2023-07-31T05:56:00;4.55;;;1.88;;
71973;SDS011;59840;52.122;5.404;2023-07-31T05:58:26;4.45;;;1.90;;
71973;SDS011;59840;52.122;5.404;2023-07-31T06:00:53;5.18;;;1.98;;
71973;SDS011;59840;52.122;5.404;2023-07-31T06:03:20;4.37;;;2.20;;
71973;SDS011;59840;52.122;5.404;2023-07-31T06:05:46;4.47;;;2.42;;
71973;SDS011;59840;52.122;5.404;2023-07-31T06:08:13;5.45;;;2.40;;
71973;SDS011;59840;52.122;5.404;2023-07-31T06:10:40;5.40;;;2.50;;
71973;SDS011;59840;52.122;5.404;2023-07-31T06:13:07;4.07;;;2.20;;
71973;SDS011;59840;52.122;5.404;2023-07-31T06:15:33;3.80;;;2.27;;
71973;SDS011;59840;52.122;5.404;2023-07-31T06:18:00;5.63;;;2.03;;
71973;SDS011;59840;52.122;5.404;2023-07-31T06:20:28;8.35;;;2.72;;
71973;SDS011;59840;52.122;5.404;2023-07-31T06:22:55;5.60;;;2.22;;
71973;SDS011;59840;52.122;5.404;2023-07-31T06:25:22;3.40;;;2.20;;
71973;SDS011;59840;52.122;5.404;2023-07-31T06:27:49;5.57;;;2.17;;
71973;SDS011;59840;52.122;5.404;2023-07-31T06:30:17;6.13;;;2.90;;
71973;SDS011;59840;52.122;5.404;2023-07-31T06:32:43;5.20;;;2.40;;
71973;SDS011;59840;52.122;5.404;2023-07-31T06:35:10;3.72;;;2.15;;
71973;SDS011;59840;52.122;5.404;2023-07-31T06:37:37;6.07;;;2.00;;
71973;SDS011;59840;52.122;5.404;2023-07-31T06:40:06;4.23;;;1.80;;
71973;SDS011;59840;52.122;5.404;2023-07-31T06:42:35;2.28;;;1.33;;
71973;SDS011;59840;52.122;5.404;2023-07-31T06:45:04;5.03;;;2.50;;
71973;SDS011;59840;52.122;5.404;2023-07-31T06:47:32;3.25;;;1.60;;
71973;SDS011;59840;52.122;5.404;2023-07-31T06:49:58;3.72;;;1.52;;
71973;SDS011;59840;52.122;5.404;2023-07-31T06:52:25;2.93;;;1.93;;
71973;SDS011;59840;52.122;5.404;2023-07-31T06:55:16;4.38;;;1.50;;
71973;SDS011;59840;52.122;5.404;2023-07-31T06:57:54;2.60;;;1.50;;
71973;SDS011;59840;52.122;5.404;2023-07-31T07:00:21;3.40;;;1.48;;
71973;SDS011;59840;52.122;5.404;2023-07-31T07:02:49;3.50;;;1.75;;
71973;SDS011;59840;52.122;5.404;2023-07-31T07:05:16;2.40;;;1.50;;
71973;SDS011;59840;52.122;5.404;2023-07-31T07:07:43;4.35;;;1.73;;
71973;SDS011;59840;52.122;5.404;2023-07-31T07:10:10;4.65;;;1.88;;
71973;SDS011;59840;52.122;5.404;2023-07-31T07:12:37;3.35;;;2.03;;
71973;SDS011;59840;52.122;5.404;2023-07-31T07:15:04;3.10;;;1.70;;
71973;SDS011;59840;52.122;5.404;2023-07-31T07:17:31;3.70;;;2.07;;
71973;SDS011;59840;52.122;5.404;2023-07-31T07:19:57;3.78;;;2.00;;
71973;SDS011;59840;52.122;5.404;2023-07-31T07:22:25;4.97;;;2.20;;
71973;SDS011;59840;52.122;5.404;2023-07-31T07:24:53;2.88;;;1.77;;
71973;SDS011;59840;52.122;5.404;2023-07-31T07:27:20;2.85;;;1.98;;
71973;SDS011;59840;52.122;5.404;2023-07-31T07:29:47;2.30;;;1.83;;
71973;SDS011;59840;52.122;5.404;2023-07-31T07:32:16;4.05;;;1.88;;
71973;SDS011;59840;52.122;5.404;2023-07-31T07:34:43;3.45;;;1.90;;
71973;SDS011;59840;52.122;5.404;2023-07-31T07:37:10;3.33;;;1.65;;
71973;SDS011;59840;52.122;5.404;2023-07-31T07:39:37;3.22;;;1.70;;
71973;SDS011;59840;52.122;5.404;2023-07-31T07:42:04;3.03;;;1.50;;
71973;SDS011;59840;52.122;5.404;2023-07-31T07:44:30;3.88;;;2.03;;
71973;SDS011;59840;52.122;5.404;2023-07-31T07:46:57;1.80;;;1.65;;
71973;SDS011;59840;52.122;5.404;2023-07-31T07:49:24;6.97;;;2.10;;
71973;SDS011;59840;52.122;5.404;2023-07-31T07:51:53;5.95;;;2.05;;
71973;SDS011;59840;52.122;5.404;2023-07-31T07:54:20;3.07;;;1.70;;
71973;SDS011;59840;52.122;5.404;2023-07-31T07:56:47;3.40;;;1.65;;
71973;SDS011;59840;52.122;5.404;2023-07-31T07:59:14;5.47;;;1.58;;
71973;SDS011;59840;52.122;5.404;2023-07-31T08:01:40;1.90;;;1.42;;
71973;SDS011;59840;52.122;5.404;2023-07-31T08:04:07;1.80;;;1.60;;
71973;SDS011;59840;52.122;5.404;2023-07-31T08:06:33;2.33;;;1.27;;
71973;SDS011;59840;52.122;5.404;2023-07-31T08:09:00;2.70;;;1.15;;
71973;SDS011;59840;52.122;5.404;2023-07-31T08:11:32;2.58;;;1.48;;
71973;SDS011;59840;52.122;5.404;2023-07-31T08:13:59;3.58;;;1.60;;
71973;SDS011;59840;52.122;5.404;2023-07-31T08:16:26;2.33;;;1.25;;
71973;SDS011;59840;52.122;5.404;2023-07-31T08:18:53;2.90;;;1.40;;
71973;SDS011;59840;52.122;5.404;2023-07-31T08:21:21;1.55;;;0.98;;
71973;SDS011;59840;52.122;5.404;2023-07-31T08:23:48;1.20;;;0.80;;
71973;SDS011;59840;52.122;5.404;2023-07-31T08:26:18;1.75;;;1.00;;
71973;SDS011;59840;52.122;5.404;2023-07-31T08:28:45;1.25;;;0.85;;
71973;SDS011;59840;52.122;5.404;2023-07-31T08:31:12;2.07;;;1.10;;
71973;SDS011;59840;52.122;5.404;2023-07-31T08:33:39;0.82;;;0.70;;
71973;SDS011;59840;52.122;5.404;2023-07-31T08:36:06;1.20;;;0.90;;
71973;SDS011;59840;52.122;5.404;2023-07-31T08:38:33;1.55;;;0.80;;
71973;SDS011;59840;52.122;5.404;2023-07-31T08:41:00;2.05;;;0.60;;
71973;SDS011;59840;52.122;5.404;2023-07-31T08:43:26;1.00;;;0.70;;
71973;SDS011;59840;52.122;5.404;2023-07-31T08:45:53;1.67;;;0.80;;
71973;SDS011;59840;52.122;5.404;2023-07-31T08:48:21;1.05;;;0.60;;
71973;SDS011;59840;52.122;5.404;2023-07-31T08:50:49;1.50;;;0.77;;
71973;SDS011;59840;52.122;5.404;2023-07-31T08:53:18;1.55;;;0.70;;
71973;SDS011;59840;52.122;5.404;2023-07-31T08:55:44;1.20;;;0.70;;
71973;SDS011;59840;52.122;5.404;2023-07-31T08:58:12;1.77;;;0.70;;
71973;SDS011;59840;52.122;5.404;2023-07-31T09:00:40;1.75;;;0.60;;
71973;SDS011;59840;52.122;5.404;2023-07-31T09:03:19;1.23;;;1.13;;
71973;SDS011;59840;52.122;5.404;2023-07-31T09:05:48;1.33;;;0.80;;
71973;SDS011;59840;52.122;5.404;2023-07-31T09:08:18;1.37;;;0.57;;
71973;SDS011;59840;52.122;5.404;2023-07-31T09:10:45;1.75;;;0.70;;
71973;SDS011;59840;52.122;5.404;2023-07-31T09:13:13;1.60;;;0.73;;
71973;SDS011;59840;52.122;5.404;2023-07-31T09:15:41;0.90;;;0.70;;
71973;SDS011;59840;52.122;5.404;2023-07-31T09:18:10;1.15;;;0.85;;
71973;SDS011;59840;52.122;5.404;2023-07-31T09:20:37;1.40;;;1.10;;
71973;SDS011;59840;52.122;5.404;2023-07-31T09:25:35;1.95;;;0.95;;
71973;SDS011;59840;52.122;5.404;2023-07-31T09:28:04;1.38;;;0.95;;
71973;SDS011;59840;52.122;5.404;2023-07-31T09:30:47;1.25;;;1.00;;
71973;SDS011;59840;52.122;5.404;2023-07-31T09:33:16;1.73;;;1.30;;
71973;SDS011;59840;52.122;5.404;2023-07-31T09:35:43;1.30;;;0.77;;
71973;SDS011;59840;52.122;5.404;2023-07-31T09:38:11;2.33;;;1.10;;
71973;SDS011;59840;52.122;5.404;2023-07-31T09:40:39;1.92;;;1.15;;
71973;SDS011;59840;52.122;5.404;2023-07-31T09:43:08;1.40;;;1.00;;
71973;SDS011;59840;52.122;5.404;2023-07-31T09:45:42;1.37;;;1.07;;
71973;SDS011;59840;52.122;5.404;2023-07-31T09:48:14;1.20;;;1.10;;
71973;SDS011;59840;52.122;5.404;2023-07-31T09:50:45;1.50;;;1.20;;
71973;SDS011;59840;52.122;5.404;2023-07-31T09:53:13;2.45;;;1.20;;
71973;SDS011;59840;52.122;5.404;2023-07-31T09:55:40;2.05;;;0.90;;
71973;SDS011;59840;52.122;5.404;2023-07-31T09:58:09;1.50;;;1.10;;
71973;SDS011;59840;52.122;5.404;2023-07-31T10:00:37;1.40;;;1.05;;
71973;SDS011;59840;52.122;5.404;2023-07-31T10:03:05;2.40;;;1.10;;
71973;SDS011;59840;52.122;5.404;2023-07-31T10:08:01;2.05;;;1.00;;
71973;SDS011;59840;52.122;5.404;2023-07-31T10:10:27;2.80;;;1.10;;
71973;SDS011;59840;52.122;5.404;2023-07-31T10:12:55;2.85;;;0.95;;
71973;SDS011;59840;52.122;5.404;2023-07-31T10:15:23;1.40;;;1.10;;
71973;SDS011;59840;52.122;5.404;2023-07-31T10:17:51;1.98;;;1.33;;
71973;SDS011;59840;52.122;5.404;2023-07-31T10:20:18;1.70;;;1.48;;
71973;SDS011;59840;52.122;5.404;2023-07-31T10:22:45;1.93;;;1.73;;
71973;SDS011;59840;52.122;5.404;2023-07-31T10:25:12;2.30;;;1.75;;
71973;SDS011;59840;52.122;5.404;2023-07-31T10:27:39;2.65;;;1.77;;
71973;SDS011;59840;52.122;5.404;2023-07-31T10:30:08;3.63;;;2.13;;
71973;SDS011;59840;52.122;5.404;2023-07-31T10:32:37;3.47;;;2.17;;
71973;SDS011;59840;52.122;5.404;2023-07-31T10:35:05;3.93;;;2.40;;
71973;SDS011;59840;52.122;5.404;2023-07-31T10:37:39;6.60;;;2.35;;
71973;SDS011;59840;52.122;5.404;2023-07-31T10:40:12;2.92;;;2.10;;
71973;SDS011;59840;52.122;5.404;2023-07-31T10:45:13;2.97;;;2.55;;
71973;SDS011;59840;52.122;5.404;2023-07-31T10:47:51;2.30;;;2.10;;
71973;SDS011;59840;52.122;5.404;2023-07-31T10:50:25;5.10;;;2.55;;
71973;SDS011;59840;52.122;5.404;2023-07-31T10:52:54;2.70;;;2.20;;
71973;SDS011;59840;52.122;5.404;2023-07-31T10:57:56;2.67;;;1.95;;
71973;SDS011;59840;52.122;5.404;2023-07-31T11:00:31;2.37;;;1.70;;
71973;SDS011;59840;52.122;5.404;2023-07-31T11:02:59;2.78;;;2.10;;
71973;SDS011;59840;52.122;5.404;2023-07-31T11:08:55;2.20;;;1.60;;
71973;SDS011;59840;52.122;5.404;2023-07-31T11:11:24;4.80;;;1.65;;
71973;SDS011;59840;52.122;5.404;2023-07-31T11:13:53;3.53;;;1.50;;
71973;SDS011;59840;52.122;5.404;2023-07-31T11:16:23;2.30;;;1.42;;
71973;SDS011;59840;52.122;5.404;2023-07-31T11:18:51;2.42;;;1.33;;
71973;SDS011;59840;52.122;5.404;2023-07-31T11:21:35;2.67;;;1.65;;
71973;SDS011;59840;52.122;5.404;2023-07-31T11:24:03;1.40;;;1.17;;
71973;SDS011;59840;52.122;5.404;2023-07-31T11:26:39;3.60;;;1.10;;
71973;SDS011;59840;52.122;5.404;2023-07-31T11:29:15;1.17;;;0.82;;
71973;SDS011;59840;52.122;5.404;2023-07-31T11:31:42;1.58;;;0.80;;
71973;SDS011;59840;52.122;5.404;2023-07-31T11:34:09;1.20;;;1.05;;
71973;SDS011;59840;52.122;5.404;2023-07-31T11:36:37;1.00;;;0.90;;
71973;SDS011;59840;52.122;5.404;2023-07-31T11:39:18;1.30;;;0.83;;
71973;SDS011;59840;52.122;5.404;2023-07-31T11:41:48;1.75;;;0.80;;
71973;SDS011;59840;52.122;5.404;2023-07-31T11:44:15;1.20;;;1.02;;
71973;SDS011;59840;52.122;5.404;2023-07-31T11:46:53;1.73;;;0.93;;
71973;SDS011;59840;52.122;5.404;2023-07-31T11:49:23;2.00;;;1.10;;
71973;SDS011;59840;52.122;5.404;2023-07-31T11:51:50;1.53;;;1.30;;
71973;SDS011;59840;52.122;5.404;2023-07-31T11:54:17;1.88;;;1.48;;
71973;SDS011;59840;52.122;5.404;2023-07-31T11:56:44;1.90;;;1.70;;
71973;SDS011;59840;52.122;5.404;2023-07-31T11:59:11;1.83;;;1.70;;
71973;SDS011;59840;52.122;5.404;2023-07-31T12:01:41;1.77;;;1.60;;
71973;SDS011;59840;52.122;5.404;2023-07-31T12:04:20;1.77;;;1.60;;
71973;SDS011;59840;52.122;5.404;2023-07-31T12:06:49;2.00;;;1.70;;
71973;SDS011;59840;52.122;5.404;2023-07-31T12:09:23;1.70;;;1.60;;
71973;SDS011;59840;52.122;5.404;2023-07-31T12:11:51;2.30;;;1.52;;
71973;SDS011;59840;52.122;5.404;2023-07-31T12:14:25;2.35;;;1.88;;
71973;SDS011;59840;52.122;5.404;2023-07-31T12:16:55;1.80;;;1.23;;
71973;SDS011;59840;52.122;5.404;2023-07-31T12:19:23;2.03;;;1.50;;
71973;SDS011;59840;52.122;5.404;2023-07-31T12:21:57;1.80;;;1.35;;
71973;SDS011;59840;52.122;5.404;2023-07-31T12:24:26;2.17;;;1.55;;
71973;SDS011;59840;52.122;5.404;2023-07-31T12:26:53;2.40;;;1.60;;
71973;SDS011;59840;52.122;5.404;2023-07-31T12:29:23;1.90;;;1.57;;
71973;SDS011;59840;52.122;5.404;2023-07-31T12:31:59;1.92;;;1.73;;
71973;SDS011;59840;52.122;5.404;2023-07-31T12:34:26;1.83;;;1.55;;
71973;SDS011;59840;52.122;5.404;2023-07-31T12:36:57;1.48;;;1.38;;
71973;SDS011;59840;52.122;5.404;2023-07-31T12:39:28;1.35;;;1.20;;
71973;SDS011;59840;52.122;5.404;2023-07-31T12:41:55;2.27;;;1.20;;
71973;SDS011;59840;52.122;5.404;2023-07-31T12:44:21;1.75;;;1.65;;
71973;SDS011;59840;52.122;5.404;2023-07-31T12:46:48;2.05;;;1.70;;
71973;SDS011;59840;52.122;5.404;2023-07-31T12:49:17;1.77;;;1.60;;
71973;SDS011;59840;52.122;5.404;2023-07-31T12:51:44;2.35;;;1.63;;
71973;SDS011;59840;52.122;5.404;2023-07-31T12:54:14;3.23;;;2.00;;
71973;SDS011;59840;52.122;5.404;2023-07-31T12:56:42;2.00;;;1.80;;
71973;SDS011;59840;52.122;5.404;2023-07-31T12:59:12;1.90;;;1.80;;
71973;SDS011;59840;52.122;5.404;2023-07-31T13:01:51;2.42;;;2.22;;
71973;SDS011;59840;52.122;5.404;2023-07-31T13:04:18;3.38;;;2.20;;
71973;SDS011;59840;52.122;5.404;2023-07-31T13:06:47;2.87;;;2.60;;
71973;SDS011;59840;52.122;5.404;2023-07-31T13:09:14;2.55;;;2.20;;
71973;SDS011;59840;52.122;5.404;2023-07-31T13:11:43;2.10;;;1.90;;
71973;SDS011;59840;52.122;5.404;2023-07-31T13:14:26;2.10;;;1.95;;
71973;SDS011;59840;52.122;5.404;2023-07-31T13:16:53;2.72;;;1.85;;
71973;SDS011;59840;52.122;5.404;2023-07-31T13:19:23;2.83;;;2.20;;
71973;SDS011;59840;52.122;5.404;2023-07-31T13:21:50;2.40;;;2.20;;
71973;SDS011;59840;52.122;5.404;2023-07-31T13:24:17;4.00;;;2.65;;
71973;SDS011;59840;52.122;5.404;2023-07-31T13:26:46;2.60;;;2.40;;
71973;SDS011;59840;52.122;5.404;2023-07-31T13:29:20;3.15;;;2.00;;
71973;SDS011;59840;52.122;5.404;2023-07-31T13:31:49;2.40;;;2.20;;
71973;SDS011;59840;52.122;5.404;2023-07-31T13:34:16;2.78;;;2.20;;
71973;SDS011;59840;52.122;5.404;2023-07-31T13:36:43;3.33;;;2.00;;
71973;SDS011;59840;52.122;5.404;2023-07-31T13:39:10;2.40;;;2.20;;
71973;SDS011;59840;52.122;5.404;2023-07-31T13:41:36;2.10;;;1.48;;
71973;SDS011;59840;52.122;5.404;2023-07-31T13:44:03;1.33;;;1.23;;
71973;SDS011;59840;52.122;5.404;2023-07-31T13:46:30;1.98;;;1.42;;
71973;SDS011;59840;52.122;5.404;2023-07-31T13:48:57;1.50;;;0.80;;
71973;SDS011;59840;52.122;5.404;2023-07-31T13:51:23;0.73;;;0.70;;
71973;SDS011;59840;52.122;5.404;2023-07-31T13:53:50;1.80;;;1.00;;
71973;SDS011;59840;52.122;5.404;2023-07-31T13:56:17;1.50;;;1.00;;
71973;SDS011;59840;52.122;5.404;2023-07-31T13:58:43;1.60;;;1.27;;
71973;SDS011;59840;52.122;5.404;2023-07-31T14:01:10;1.77;;;1.48;;
71973;SDS011;59840;52.122;5.404;2023-07-31T14:03:37;1.63;;;0.90;;
71973;SDS011;59840;52.122;5.404;2023-07-31T14:06:03;1.10;;;0.90;;
71973;SDS011;59840;52.122;5.404;2023-07-31T14:08:30;1.03;;;0.70;;
71973;SDS011;59840;52.122;5.404;2023-07-31T14:10:59;2.53;;;0.90;;
71973;SDS011;59840;52.122;5.404;2023-07-31T14:13:26;1.38;;;0.80;;
71973;SDS011;59840;52.122;5.404;2023-07-31T14:15:52;1.13;;;1.02;;
71973;SDS011;59840;52.122;5.404;2023-07-31T14:18:20;1.25;;;1.15;;
71973;SDS011;59840;52.122;5.404;2023-07-31T14:20:48;2.40;;;1.40;;
71973;SDS011;59840;52.122;5.404;2023-07-31T14:23:14;3.05;;;2.78;;
71973;SDS011;59840;52.122;5.404;2023-07-31T14:25:41;3.47;;;2.85;;
71973;SDS011;59840;52.122;5.404;2023-07-31T14:28:08;3.20;;;2.90;;
71973;SDS011;59840;52.122;5.404;2023-07-31T14:30:35;5.20;;;3.53;;
71973;SDS011;59840;52.122;5.404;2023-07-31T14:33:02;4.23;;;3.80;;
71973;SDS011;59840;52.122;5.404;2023-07-31T14:35:28;4.60;;;3.55;;
71973;SDS011;59840;52.122;5.404;2023-07-31T14:37:55;5.93;;;3.80;;
71973;SDS011;59840;52.122;5.404;2023-07-31T14:40:22;4.10;;;3.70;;
71973;SDS011;59840;52.122;5.404;2023-07-31T14:42:48;5.07;;;4.20;;
71973;SDS011;59840;52.122;5.404;2023-07-31T14:45:15;3.80;;;3.33;;
71973;SDS011;59840;52.122;5.404;2023-07-31T14:47:42;7.78;;;4.70;;
71973;SDS011;59840;52.122;5.404;2023-07-31T14:50:08;3.92;;;3.60;;
71973;SDS011;59840;52.122;5.404;2023-07-31T14:52:36;3.95;;;3.00;;
71973;SDS011;59840;52.122;5.404;2023-07-31T14:55:02;3.50;;;3.20;;
71973;SDS011;59840;52.122;5.404;2023-07-31T14:57:29;3.80;;;3.10;;
71973;SDS011;59840;52.122;5.404;2023-07-31T14:59:56;6.40;;;2.90;;
71973;SDS011;59840;52.122;5.404;2023-07-31T15:02:23;2.95;;;2.35;;
71973;SDS011;59840;52.122;5.404;2023-07-31T15:04:50;4.25;;;3.10;;
71973;SDS011;59840;52.122;5.404;2023-07-31T15:07:16;2.28;;;2.08;;
71973;SDS011;59840;52.122;5.404;2023-07-31T15:09:43;3.03;;;1.80;;
71973;SDS011;59840;52.122;5.404;2023-07-31T15:12:10;2.72;;;2.17;;
71973;SDS011;59840;52.122;5.404;2023-07-31T15:14:36;2.20;;;2.00;;